createdAt,value
2023-02-28T00:01:31.443Z,6.83
2023-02-28T00:03:58.958Z,7.00
2023-02-28T00:06:28.358Z,7.93
2023-02-28T00:08:55.770Z,5.53
2023-02-28T00:11:22.940Z,5.40
2023-02-28T00:13:52.445Z,6.10
2023-02-28T00:16:22.589Z,4.67
2023-02-28T00:18:50.176Z,8.03
2023-02-28T00:21:18.268Z,5.50
2023-02-28T00:23:45.365Z,8.23
2023-02-28T00:26:12.844Z,5.43
2023-02-28T00:28:39.952Z,6.97
2023-02-28T00:31:06.880Z,7.67
2023-02-28T00:33:34.455Z,7.47
2023-02-28T00:36:10.771Z,5.20
2023-02-28T00:38:39.104Z,4.37
2023-02-28T00:41:06.740Z,5.73
2023-02-28T00:43:35.393Z,8.70
2023-02-28T00:46:03.028Z,6.10
2023-02-28T00:48:29.920Z,7.90
2023-02-28T00:50:56.950Z,6.20
2023-02-28T00:53:24.036Z,5.13
2023-02-28T00:55:51.587Z,6.23
2023-02-28T00:58:18.629Z,5.47
2023-02-28T01:00:50.415Z,6.67
2023-02-28T01:03:19.184Z,7.37
2023-02-28T01:05:47.071Z,7.20
2023-02-28T01:08:15.026Z,7.50
2023-02-28T01:10:42.386Z,7.50
2023-02-28T01:13:09.412Z,3.83
2023-02-28T01:15:36.553Z,7.00
2023-02-28T01:18:03.848Z,5.40
2023-02-28T01:20:30.707Z,6.70
2023-02-28T01:22:57.681Z,6.23
2023-02-28T01:25:25.254Z,5.37
2023-02-28T01:27:52.194Z,6.30
2023-02-28T01:30:19.175Z,7.23
2023-02-28T01:32:46.314Z,5.60
2023-02-28T01:35:13.342Z,6.13
2023-02-28T01:37:40.682Z,6.03
2023-02-28T01:40:13.907Z,5.93
2023-02-28T01:42:40.883Z,5.37
2023-02-28T01:45:26.613Z,9.00
2023-02-28T01:47:59.583Z,5.40
2023-02-28T01:50:30.289Z,5.10
2023-02-28T01:53:01.368Z,7.20
2023-02-28T01:55:29.847Z,5.20
2023-02-28T01:57:59.441Z,4.13
2023-02-28T02:00:28.715Z,5.60
2023-02-28T02:03:02.227Z,3.73
2023-02-28T02:05:35.795Z,3.80
2023-02-28T02:08:07.110Z,4.87
2023-02-28T02:10:41.245Z,5.63
2023-02-28T02:13:36.091Z,5.00
2023-02-28T02:16:41.067Z,6.67
2023-02-28T02:19:26.242Z,7.40
2023-02-28T02:22:12.012Z,5.53
2023-02-28T02:24:41.807Z,4.77
2023-02-28T02:27:24.350Z,6.80
2023-02-28T02:30:09.311Z,4.90
2023-02-28T02:32:57.357Z,5.47
2023-02-28T02:35:30.182Z,4.23
2023-02-28T02:38:05.747Z,6.73
2023-02-28T02:40:57.226Z,5.33
2023-02-28T02:43:35.056Z,5.00
2023-02-28T02:46:09.613Z,7.27
2023-02-28T02:48:40.538Z,5.03
2023-02-28T02:51:17.973Z,6.90
2023-02-28T02:54:08.266Z,11.27
2023-02-28T02:56:41.002Z,7.03
2023-02-28T02:59:12.658Z,6.80
2023-02-28T03:01:41.470Z,7.57
2023-02-28T03:04:32.082Z,5.97
2023-02-28T03:06:59.132Z,4.63
2023-02-28T03:09:27.497Z,9.50
2023-02-28T03:11:57.449Z,5.20
2023-02-28T03:14:57.209Z,3.40
2023-02-28T03:17:43.643Z,5.43
2023-02-28T03:20:31.992Z,6.27
2023-02-28T03:23:16.758Z,5.60
2023-02-28T03:26:10.838Z,6.90
2023-02-28T03:29:01.631Z,4.53
2023-02-28T03:31:48.397Z,7.10
2023-02-28T03:34:25.384Z,4.47
2023-02-28T03:36:57.458Z,5.17
2023-02-28T03:39:39.880Z,3.73
2023-02-28T03:42:18.877Z,7.57
2023-02-28T03:44:53.371Z,5.27
2023-02-28T03:47:30.277Z,6.30
2023-02-28T03:50:02.531Z,5.87
2023-02-28T03:52:34.712Z,7.10
2023-02-28T03:55:13.051Z,3.10
2023-02-28T03:58:03.024Z,5.67
2023-02-28T04:00:36.233Z,6.10
2023-02-28T04:03:05.023Z,7.50
2023-02-28T04:05:33.285Z,3.70
2023-02-28T04:08:08.944Z,4.27
2023-02-28T04:10:36.010Z,4.40
2023-02-28T04:13:02.855Z,4.40
2023-02-28T04:15:29.776Z,4.10
2023-02-28T04:17:56.638Z,5.13
2023-02-28T04:20:23.596Z,6.83
2023-02-28T04:22:50.510Z,4.77
2023-02-28T04:25:17.553Z,4.50
2023-02-28T04:27:45.822Z,4.53
2023-02-28T04:30:13.378Z,5.13
2023-02-28T04:32:40.131Z,5.43
2023-02-28T04:35:12.350Z,5.77
2023-02-28T04:37:42.080Z,5.07
2023-02-28T04:40:09.993Z,5.37
2023-02-28T04:42:37.253Z,3.63
2023-02-28T04:45:05.893Z,6.30
2023-02-28T04:47:32.968Z,3.77
2023-02-28T04:49:59.940Z,4.90
2023-02-28T04:52:29.181Z,5.83
2023-02-28T04:54:56.345Z,9.07
2023-02-28T04:57:23.956Z,5.87
2023-02-28T04:59:50.809Z,5.50
2023-02-28T05:02:18.585Z,5.73
2023-02-28T05:04:45.864Z,6.83
2023-02-28T05:07:12.794Z,5.70
2023-02-28T05:09:39.659Z,5.63
2023-02-28T05:12:06.838Z,5.17
2023-02-28T05:14:33.875Z,3.97
2023-02-28T05:17:00.759Z,8.63
2023-02-28T05:19:27.635Z,4.37
2023-02-28T05:21:56.338Z,4.47
2023-02-28T05:24:26.345Z,4.00
2023-02-28T05:26:54.608Z,4.13
2023-02-28T05:29:21.811Z,5.63
2023-02-28T05:31:49.701Z,4.47
2023-02-28T05:34:17.274Z,4.00
2023-02-28T05:36:44.582Z,4.10
2023-02-28T05:39:14.425Z,4.53
2023-02-28T05:41:45.056Z,4.80
2023-02-28T05:44:13.533Z,5.43
2023-02-28T05:46:40.544Z,6.00
2023-02-28T05:49:10.898Z,5.63
2023-02-28T05:51:41.035Z,7.53
2023-02-28T05:54:08.077Z,8.80
2023-02-28T05:56:40.226Z,5.67
2023-02-28T05:59:07.986Z,8.70
2023-02-28T06:01:49.273Z,8.70
2023-02-28T06:04:31.197Z,8.00
2023-02-28T06:06:59.048Z,5.83
2023-02-28T06:09:26.410Z,6.43
2023-02-28T06:11:53.448Z,8.93
2023-02-28T06:14:21.088Z,6.77
2023-02-28T06:16:48.590Z,5.83
2023-02-28T06:19:16.426Z,5.60
2023-02-28T06:21:44.112Z,8.53
2023-02-28T06:24:12.695Z,7.33
2023-02-28T06:26:39.685Z,4.70
2023-02-28T06:29:06.826Z,5.93
2023-02-28T06:31:34.096Z,7.07
2023-02-28T06:34:01.159Z,5.70
2023-02-28T06:36:28.282Z,7.33
2023-02-28T06:38:56.701Z,7.03
2023-02-28T06:41:28.596Z,7.13
2023-02-28T06:43:56.089Z,5.77
2023-02-28T06:46:23.601Z,7.80
2023-02-28T06:48:50.792Z,7.40
2023-02-28T06:51:21.395Z,6.20
2023-02-28T06:53:48.331Z,10.33
2023-02-28T06:56:16.675Z,6.70
2023-02-28T06:58:47.025Z,10.43
2023-02-28T07:01:15.268Z,9.70
2023-02-28T07:03:42.342Z,11.17
2023-02-28T07:06:09.344Z,7.17
2023-02-28T07:08:37.127Z,7.93
2023-02-28T07:11:04.911Z,6.43
2023-02-28T07:13:34.931Z,4.43
2023-02-28T07:16:05.938Z,5.93
2023-02-28T07:18:33.637Z,7.60
2023-02-28T07:21:04.072Z,5.90
2023-02-28T07:23:31.469Z,7.03
2023-02-28T07:25:58.550Z,5.97
2023-02-28T07:28:25.622Z,5.07
2023-02-28T07:30:52.897Z,5.77
2023-02-28T07:33:19.936Z,6.83
2023-02-28T07:35:46.981Z,6.13
2023-02-28T07:38:15.060Z,6.77
2023-02-28T07:40:42.304Z,6.40
2023-02-28T07:43:09.404Z,3.80
2023-02-28T07:45:36.495Z,6.03
2023-02-28T07:48:06.500Z,4.90
2023-02-28T07:50:33.565Z,5.77
2023-02-28T07:53:00.834Z,5.27
2023-02-28T07:55:28.183Z,4.50
2023-02-28T07:57:55.443Z,5.70
2023-02-28T08:00:22.869Z,3.73
2023-02-28T08:02:49.864Z,7.13
2023-02-28T08:05:16.898Z,5.03
2023-02-28T08:07:47.628Z,5.47
2023-02-28T08:10:14.738Z,5.43
2023-02-28T08:12:41.716Z,5.87
2023-02-28T08:15:09.455Z,4.50
2023-02-28T08:17:37.154Z,5.93
2023-02-28T08:20:05.452Z,4.20
2023-02-28T08:22:32.418Z,6.20
2023-02-28T08:24:59.581Z,3.37
2023-02-28T08:27:28.653Z,6.53
2023-02-28T08:29:55.556Z,6.77
2023-02-28T08:32:30.647Z,3.27
2023-02-28T08:34:58.056Z,4.80
2023-02-28T08:37:25.266Z,5.97
2023-02-28T08:39:55.584Z,5.03
2023-02-28T08:42:23.140Z,3.53
2023-02-28T08:44:50.134Z,4.73
2023-02-28T08:47:17.486Z,6.77
2023-02-28T08:49:46.667Z,3.93
2023-02-28T08:52:13.870Z,4.27
2023-02-28T08:54:41.049Z,2.97
2023-02-28T08:57:08.197Z,2.93
2023-02-28T08:59:35.064Z,3.73
2023-02-28T09:02:02.092Z,2.73
2023-02-28T09:04:31.876Z,2.97
2023-02-28T09:06:58.851Z,2.57
2023-02-28T09:09:25.853Z,6.13
2023-02-28T09:11:52.785Z,2.73
2023-02-28T09:14:20.011Z,2.70
2023-02-28T09:16:46.937Z,7.83
2023-02-28T09:19:17.000Z,5.30
2023-02-28T09:21:44.052Z,3.50
2023-02-28T09:24:13.012Z,5.67
2023-02-28T09:26:51.494Z,2.10
2023-02-28T09:29:23.174Z,4.67
2023-02-28T09:31:50.791Z,7.03
2023-02-28T09:34:18.834Z,8.10
2023-02-28T09:36:46.907Z,3.50
2023-02-28T09:39:16.911Z,2.10
2023-02-28T09:41:51.455Z,3.23
2023-02-28T09:44:43.947Z,6.13
2023-02-28T09:47:18.549Z,4.37
2023-02-28T09:49:48.939Z,2.63
2023-02-28T09:52:21.492Z,4.27
2023-02-28T09:54:48.552Z,3.77
2023-02-28T09:57:31.052Z,9.07
2023-02-28T10:00:20.762Z,3.37
2023-02-28T10:02:47.758Z,2.93
2023-02-28T10:05:21.299Z,3.90
2023-02-28T10:08:00.351Z,2.50
2023-02-28T10:10:33.583Z,3.47
2023-02-28T10:13:03.906Z,3.10
2023-02-28T10:15:33.420Z,3.03
2023-02-28T10:18:09.320Z,2.43
2023-02-28T10:20:41.297Z,5.70
2023-02-28T10:23:32.847Z,1.77
2023-02-28T10:26:21.688Z,2.57
2023-02-28T10:28:48.654Z,3.83
2023-02-28T10:31:24.096Z,2.07
2023-02-28T10:33:52.362Z,4.20
2023-02-28T10:36:22.261Z,3.73
2023-02-28T10:38:49.940Z,2.77
2023-02-28T10:41:37.439Z,5.03
2023-02-28T10:44:22.538Z,3.23
2023-02-28T10:46:50.919Z,5.50
2023-02-28T10:49:30.781Z,4.90
2023-02-28T10:52:02.266Z,3.83
2023-02-28T10:54:39.113Z,2.30
2023-02-28T10:57:25.554Z,2.17
2023-02-28T10:59:56.152Z,17.17
2023-02-28T11:02:38.794Z,2.97
2023-02-28T11:05:24.330Z,2.33
2023-02-28T11:08:00.552Z,3.40
2023-02-28T11:10:31.977Z,2.53
2023-02-28T11:13:00.993Z,2.70
2023-02-28T11:15:34.565Z,2.17
2023-02-28T11:18:04.802Z,2.10
2023-02-28T11:20:34.828Z,4.30
2023-02-28T11:23:04.362Z,2.07
2023-02-28T11:25:35.229Z,3.17
2023-02-28T11:28:06.992Z,1.93
2023-02-28T11:30:43.176Z,3.37
2023-02-28T11:33:31.937Z,2.10
2023-02-28T11:36:05.222Z,4.00
2023-02-28T11:38:40.003Z,4.20
2023-02-28T11:41:41.136Z,3.57
2023-02-28T11:44:37.461Z,3.67
2023-02-28T11:47:25.431Z,2.73
2023-02-28T11:50:16.653Z,5.73
2023-02-28T11:52:51.056Z,3.33
2023-02-28T11:55:27.088Z,8.40
2023-02-28T11:58:02.799Z,5.70
2023-02-28T12:01:10.944Z,2.27
2023-02-28T12:04:22.574Z,6.73
2023-02-28T12:06:49.424Z,3.83
2023-02-28T12:09:40.667Z,3.27
2023-02-28T12:12:39.783Z,2.83
2023-02-28T12:15:09.614Z,3.53
2023-02-28T12:17:43.259Z,2.83
2023-02-28T12:20:26.944Z,3.67
2023-02-28T12:23:00.990Z,2.93
2023-02-28T12:25:48.131Z,2.73
2023-02-28T12:28:21.116Z,3.50
2023-02-28T12:30:56.190Z,2.47
2023-02-28T12:33:30.649Z,2.67
2023-02-28T12:36:01.390Z,2.83
2023-02-28T12:38:39.067Z,11.67
2023-02-28T12:41:16.769Z,5.30
2023-02-28T12:43:48.081Z,4.70
2023-02-28T12:46:23.290Z,2.93
2023-02-28T12:48:57.680Z,2.27
2023-02-28T12:51:26.385Z,2.63
2023-02-28T12:54:21.337Z,5.43
2023-02-28T12:57:08.190Z,5.17
2023-02-28T12:59:41.608Z,3.73
2023-02-28T13:02:17.812Z,2.57
2023-02-28T13:04:59.491Z,5.97
2023-02-28T13:07:44.950Z,3.63
2023-02-28T13:10:17.285Z,8.90
2023-02-28T13:12:52.892Z,2.53
2023-02-28T13:15:29.209Z,2.80
2023-02-28T13:17:59.451Z,4.63
2023-02-28T13:20:27.870Z,2.47
2023-02-28T13:22:58.384Z,2.60
2023-02-28T13:25:34.841Z,3.03
2023-02-28T13:28:05.381Z,2.33
2023-02-28T13:30:57.086Z,2.80
2023-02-28T13:33:40.177Z,3.80
2023-02-28T13:36:14.773Z,7.80
2023-02-28T13:38:46.703Z,2.37
2023-02-28T13:41:32.409Z,1.80
2023-02-28T13:44:05.402Z,3.67
2023-02-28T13:46:34.001Z,4.37
2023-02-28T13:49:33.319Z,3.93
2023-02-28T13:52:15.387Z,32.07
2023-02-28T13:55:09.817Z,2.60
2023-02-28T13:58:22.119Z,4.00
2023-02-28T14:01:11.844Z,5.17
2023-02-28T14:04:26.125Z,4.50
2023-02-28T14:06:55.756Z,3.27
2023-02-28T14:09:47.318Z,4.20
2023-02-28T14:12:51.788Z,5.17
2023-02-28T14:15:37.647Z,2.63
2023-02-28T14:18:15.034Z,2.30
2023-02-28T14:20:43.603Z,2.13
2023-02-28T14:23:31.898Z,3.37
2023-02-28T14:26:17.350Z,2.33
2023-02-28T14:28:47.228Z,2.10
2023-02-28T14:31:20.668Z,3.33
2023-02-28T14:34:17.885Z,2.47
2023-02-28T14:36:46.354Z,2.73
2023-02-28T14:39:16.504Z,3.60
2023-02-28T14:41:45.312Z,2.20
2023-02-28T14:44:26.664Z,3.00
2023-02-28T14:46:58.921Z,2.17
2023-02-28T14:49:43.216Z,2.87
2023-02-28T14:52:24.617Z,2.37
2023-02-28T14:54:57.573Z,4.37
2023-02-28T14:57:42.087Z,2.87
2023-02-28T15:00:24.981Z,5.30
2023-02-28T15:02:52.750Z,3.03
2023-02-28T15:05:30.929Z,4.03
2023-02-28T15:08:17.180Z,2.93
2023-02-28T15:10:46.822Z,4.90
2023-02-28T15:13:16.331Z,2.70
2023-02-28T15:16:03.030Z,5.53
2023-02-28T15:18:44.232Z,7.70
2023-02-28T15:21:19.165Z,8.10
2023-02-28T15:23:50.694Z,3.70
2023-02-28T15:26:21.692Z,3.83
2023-02-28T15:28:56.979Z,3.93
2023-02-28T15:31:53.959Z,5.70
2023-02-28T15:34:45.173Z,3.40
2023-02-28T15:37:38.660Z,3.13
2023-02-28T15:40:19.468Z,4.37
2023-02-28T15:43:28.908Z,3.43
2023-02-28T15:46:05.863Z,2.83
2023-02-28T15:48:38.130Z,3.87
2023-02-28T15:51:09.852Z,5.30
2023-02-28T15:53:50.209Z,5.33
2023-02-28T15:56:23.421Z,4.83
2023-02-28T15:58:52.885Z,5.50
2023-02-28T16:01:31.149Z,4.53
2023-02-28T16:04:18.580Z,5.37
2023-02-28T16:07:01.263Z,6.57
2023-02-28T16:09:28.784Z,3.30
2023-02-28T16:11:58.506Z,3.20
2023-02-28T16:14:28.757Z,4.83
2023-02-28T16:17:03.409Z,3.13
2023-02-28T16:19:30.394Z,3.87
2023-02-28T16:21:57.297Z,4.53
2023-02-28T16:24:29.507Z,4.47
2023-02-28T16:27:00.995Z,6.37
2023-02-28T16:29:38.373Z,4.30
2023-02-28T16:32:08.607Z,2.97
2023-02-28T16:34:35.414Z,4.90
2023-02-28T16:37:02.247Z,2.80
2023-02-28T16:39:29.052Z,5.67
2023-02-28T16:41:56.138Z,4.87
2023-02-28T16:44:30.308Z,3.20
2023-02-28T16:46:57.388Z,3.40
2023-02-28T16:49:24.440Z,3.87
2023-02-28T16:51:51.238Z,3.00
2023-02-28T16:54:18.110Z,4.57
2023-02-28T16:56:48.430Z,3.97
2023-02-28T16:59:19.513Z,3.50
2023-02-28T17:01:46.404Z,4.97
2023-02-28T17:04:13.549Z,4.10
2023-02-28T17:06:41.397Z,3.77
2023-02-28T17:09:16.559Z,4.30
2023-02-28T17:11:43.632Z,3.93
2023-02-28T17:14:10.511Z,2.90
2023-02-28T17:16:43.393Z,5.03
2023-02-28T17:19:16.677Z,6.10
2023-02-28T17:21:44.632Z,6.97
2023-02-28T17:24:22.042Z,4.40
2023-02-28T17:26:57.120Z,3.53
2023-02-28T17:29:25.802Z,5.40
2023-02-28T17:31:53.272Z,3.83
2023-02-28T17:34:21.137Z,4.47
2023-02-28T17:36:51.952Z,4.97
2023-02-28T17:39:25.221Z,4.00
2023-02-28T17:41:56.518Z,5.47
2023-02-28T17:44:25.085Z,3.63
2023-02-28T17:46:53.239Z,7.73
2023-02-28T17:49:20.594Z,3.83
2023-02-28T17:51:49.687Z,5.47
2023-02-28T17:54:18.313Z,5.63
2023-02-28T17:56:46.204Z,3.50
2023-02-28T17:59:14.267Z,5.03
2023-02-28T18:01:41.154Z,5.40
2023-02-28T18:04:08.491Z,5.73
2023-02-28T18:06:47.595Z,7.73
2023-02-28T18:09:23.133Z,7.40
2023-02-28T18:11:51.494Z,9.93
2023-02-28T18:14:21.082Z,10.80
2023-02-28T18:16:48.891Z,9.00
2023-02-28T18:19:17.543Z,8.40
2023-02-28T18:21:46.378Z,6.50
2023-02-28T18:24:13.951Z,7.43
2023-02-28T18:26:41.943Z,6.83
2023-02-28T18:29:10.042Z,5.40
2023-02-28T18:31:37.114Z,4.03
2023-02-28T18:34:07.098Z,4.60
2023-02-28T18:36:33.837Z,6.17
2023-02-28T18:39:00.704Z,4.00
2023-02-28T18:41:29.227Z,5.97
2023-02-28T18:43:56.281Z,6.33
2023-02-28T18:46:24.514Z,5.80
2023-02-28T18:48:51.754Z,5.33
2023-02-28T18:51:21.553Z,6.13
2023-02-28T18:53:51.416Z,6.00
2023-02-28T18:56:20.676Z,11.07
2023-02-28T18:58:47.605Z,6.27
2023-02-28T19:01:31.232Z,5.23
2023-02-28T19:04:01.165Z,5.97
2023-02-28T19:06:30.023Z,6.00
2023-02-28T19:08:58.581Z,7.83
2023-02-28T19:11:26.207Z,8.53
2023-02-28T19:13:53.333Z,6.73
2023-02-28T19:16:22.194Z,7.40
2023-02-28T19:18:49.608Z,7.07
2023-02-28T19:21:19.127Z,5.73
2023-02-28T19:23:45.926Z,7.57
2023-02-28T19:26:16.153Z,8.83
2023-02-28T19:28:44.100Z,7.10
2023-02-28T19:31:22.952Z,8.83
2023-02-28T19:33:53.133Z,7.53
2023-02-28T19:36:22.345Z,5.93
2023-02-28T19:38:51.830Z,7.37
2023-02-28T19:41:19.417Z,6.57
2023-02-28T19:43:49.581Z,6.10
2023-02-28T19:46:16.785Z,5.63
2023-02-28T19:48:45.083Z,4.97
2023-02-28T19:51:14.324Z,5.20
2023-02-28T19:53:42.614Z,6.17
2023-02-28T19:56:10.296Z,5.37
2023-02-28T19:58:41.008Z,5.70
2023-02-28T20:01:16.612Z,8.80
2023-02-28T20:03:47.155Z,5.97
2023-02-28T20:06:14.321Z,6.17
2023-02-28T20:08:41.754Z,10.33
2023-02-28T20:11:11.625Z,5.97
2023-02-28T20:13:39.187Z,7.47
2023-02-28T20:16:09.958Z,8.70
2023-02-28T20:18:38.219Z,7.13
2023-02-28T20:21:05.262Z,6.30
2023-02-28T20:23:32.471Z,6.90
2023-02-28T20:26:00.681Z,9.80
2023-02-28T20:28:30.853Z,7.40
2023-02-28T20:30:57.914Z,6.70
2023-02-28T20:33:25.169Z,10.77
2023-02-28T20:35:59.626Z,6.13
2023-02-28T20:38:26.452Z,8.27
2023-02-28T20:40:58.945Z,8.33
2023-02-28T20:43:28.324Z,6.10
2023-02-28T20:45:58.647Z,6.77
2023-02-28T20:48:25.873Z,8.20
2023-02-28T20:50:58.072Z,6.50
2023-02-28T20:53:26.586Z,6.57
2023-02-28T20:56:02.236Z,8.20
2023-02-28T20:58:32.845Z,7.77
2023-02-28T21:01:20.932Z,9.03
2023-02-28T21:03:53.461Z,7.60
2023-02-28T21:06:23.634Z,11.20
2023-02-28T21:08:51.994Z,9.77
2023-02-28T21:11:21.661Z,10.70
2023-02-28T21:13:48.593Z,8.47
2023-02-28T21:16:19.470Z,9.30
2023-02-28T21:18:47.120Z,9.20
2023-02-28T21:21:19.739Z,11.90
2023-02-28T21:23:47.329Z,10.77
2023-02-28T21:26:17.447Z,11.60
2023-02-28T21:28:44.713Z,12.10
2023-02-28T21:31:15.141Z,11.60
2023-02-28T21:33:45.103Z,10.43
2023-02-28T21:36:20.687Z,13.10
2023-02-28T21:38:56.088Z,14.17
2023-02-28T21:41:28.331Z,12.67
2023-02-28T21:43:56.579Z,14.47
2023-02-28T21:46:26.339Z,12.07
2023-02-28T21:48:55.465Z,13.00
2023-02-28T21:51:28.577Z,11.90
2023-02-28T21:53:58.143Z,15.43
2023-02-28T21:56:28.255Z,20.23
2023-02-28T21:59:01.407Z,17.57
2023-02-28T22:01:43.730Z,15.47
2023-02-28T22:04:21.701Z,15.60
2023-02-28T22:06:51.103Z,16.43
2023-02-28T22:09:18.734Z,18.80
2023-02-28T22:11:55.416Z,16.17
2023-02-28T22:14:22.663Z,15.33
2023-02-28T22:16:53.041Z,14.13
2023-02-28T22:19:28.411Z,11.27
2023-02-28T22:21:56.444Z,11.73
2023-02-28T22:24:24.817Z,12.37
2023-02-28T22:26:52.729Z,11.70
2023-02-28T22:29:19.613Z,11.47
2023-02-28T22:31:46.573Z,11.43
2023-02-28T22:34:13.507Z,12.07
2023-02-28T22:36:42.369Z,11.70
2023-02-28T22:39:10.721Z,11.60
2023-02-28T22:41:38.319Z,10.90
2023-02-28T22:44:09.429Z,12.63
2023-02-28T22:46:36.850Z,10.80
2023-02-28T22:49:05.799Z,13.10
2023-02-28T22:51:33.576Z,11.93
2023-02-28T22:54:01.255Z,11.20
2023-02-28T22:56:30.431Z,11.93
2023-02-28T22:58:59.042Z,9.93
2023-02-28T23:01:28.726Z,10.47
2023-02-28T23:03:55.616Z,10.97
2023-02-28T23:06:26.614Z,10.03
2023-02-28T23:08:56.858Z,10.17
2023-02-28T23:11:26.262Z,8.63
2023-02-28T23:13:59.830Z,7.37
2023-02-28T23:16:28.251Z,8.73
2023-02-28T23:18:56.413Z,9.97
2023-02-28T23:21:24.130Z,8.80
2023-02-28T23:23:50.855Z,10.77
2023-02-28T23:26:17.770Z,10.83
2023-02-28T23:28:47.494Z,9.93
2023-02-28T23:31:14.248Z,12.53
2023-02-28T23:33:41.376Z,9.70
2023-02-28T23:36:14.836Z,9.40
2023-02-28T23:38:45.652Z,9.10
2023-02-28T23:41:13.827Z,7.23
2023-02-28T23:43:44.478Z,8.53
2023-02-28T23:46:15.296Z,10.10
2023-02-28T23:48:42.625Z,9.87
2023-02-28T23:51:17.132Z,9.43
2023-02-28T23:53:47.777Z,8.03
2023-02-28T23:56:18.851Z,10.20
2023-02-28T23:58:49.495Z,9.03
